createdAt,value
2019-03-30T00:03:01.759Z,70.97
2019-03-30T00:07:06.239Z,70.29
2019-03-30T00:11:09.991Z,70.57
2019-03-30T00:15:13.748Z,71.74
2019-03-30T00:19:17.366Z,71.95
2019-03-30T00:23:20.946Z,71.70
2019-03-30T00:27:24.486Z,71.85
2019-03-30T00:31:28.118Z,70.78
2019-03-30T00:35:32.148Z,71.94
2019-03-30T00:39:35.745Z,72.23
2019-03-30T00:43:39.355Z,71.54
2019-03-30T00:47:42.966Z,69.19
2019-03-30T00:51:47.216Z,71.30
2019-03-30T00:55:51.161Z,71.43
2019-03-30T00:59:55.281Z,71.12
2019-03-30T01:03:58.956Z,69.26
2019-03-30T01:08:02.884Z,69.91
2019-03-30T01:12:06.596Z,69.54
2019-03-30T01:16:10.666Z,72.00
2019-03-30T01:20:14.742Z,72.36
2019-03-30T01:24:18.816Z,72.37
2019-03-30T01:28:22.381Z,72.78
2019-03-30T01:32:25.994Z,72.64
2019-03-30T01:36:32.115Z,71.83
2019-03-30T01:40:36.321Z,71.74
2019-03-30T01:44:41.517Z,72.16
2019-03-30T01:48:45.163Z,72.56
2019-03-30T01:52:49.235Z,71.65
2019-03-30T01:56:52.795Z,71.86
2019-03-30T02:00:56.634Z,72.13
2019-03-30T02:05:00.391Z,72.06
2019-03-30T02:09:05.209Z,72.10
2019-03-30T02:13:08.889Z,72.22
2019-03-30T02:17:12.604Z,72.37
2019-03-30T02:21:16.322Z,72.94
2019-03-30T02:25:19.937Z,72.72
2019-03-30T02:29:23.548Z,72.27
2019-03-30T02:33:27.175Z,70.98
2019-03-30T02:37:30.776Z,70.35
2019-03-30T02:41:34.393Z,71.69
2019-03-30T02:45:38.007Z,71.90
2019-03-30T02:49:41.636Z,72.20
2019-03-30T02:53:45.232Z,70.50
2019-03-30T02:57:48.777Z,69.86
2019-03-30T03:01:52.456Z,71.48
2019-03-30T03:05:56.072Z,72.09
2019-03-30T03:09:59.696Z,71.11
2019-03-30T03:14:03.304Z,71.24
2019-03-30T03:18:07.034Z,70.84
2019-03-30T03:22:10.575Z,71.70
2019-03-30T03:26:14.246Z,70.11
2019-03-30T03:30:18.282Z,71.13
2019-03-30T03:34:21.880Z,71.76
2019-03-30T03:38:25.495Z,72.27
2019-03-30T03:42:29.110Z,72.56
2019-03-30T03:46:32.832Z,71.67
2019-03-30T03:50:46.884Z,70.80
2019-03-30T03:54:51.218Z,70.72
2019-03-30T03:58:56.973Z,70.84
2019-03-30T04:03:03.367Z,71.23
2019-03-30T04:07:08.931Z,72.34
2019-03-30T04:11:14.694Z,72.44
2019-03-30T04:15:25.359Z,72.26
2019-03-30T04:19:29.095Z,71.47
2019-03-30T04:23:32.690Z,71.57
2019-03-30T04:27:36.617Z,71.34
2019-03-30T04:31:40.223Z,71.44
2019-03-30T04:35:43.840Z,72.04
2019-03-30T04:39:47.461Z,72.83
2019-03-30T04:43:53.733Z,72.99
2019-03-30T04:47:57.342Z,73.23
2019-03-30T04:52:00.953Z,73.96
2019-03-30T04:56:04.978Z,74.44
2019-03-30T05:00:09.002Z,73.68
2019-03-30T05:04:12.617Z,73.71
2019-03-30T05:08:16.230Z,74.07
2019-03-30T05:12:19.843Z,73.59
2019-03-30T05:16:23.455Z,73.84
2019-03-30T05:20:27.069Z,72.94
2019-03-30T05:24:30.688Z,73.73
2019-03-30T05:28:34.398Z,72.83
2019-03-30T05:32:41.393Z,72.20
2019-03-30T05:36:43.435Z,72.39
2019-03-30T05:40:46.981Z,71.33
2019-03-30T05:44:50.595Z,70.45
2019-03-30T05:48:54.622Z,70.45
2019-03-30T05:52:58.238Z,70.73
2019-03-30T05:57:03.515Z,70.79
2019-03-30T06:01:07.597Z,69.97
2019-03-30T06:05:11.184Z,68.96
2019-03-30T06:09:14.768Z,67.41
2019-03-30T06:13:19.151Z,66.54
2019-03-30T06:17:22.724Z,64.38
2019-03-30T06:21:26.611Z,64.84
2019-03-30T06:25:30.224Z,64.57
2019-03-30T06:29:33.928Z,62.79
2019-03-30T06:33:37.953Z,63.49
2019-03-30T06:37:41.575Z,65.75
2019-03-30T06:41:45.146Z,65.75
2019-03-30T06:45:48.811Z,65.37
2019-03-30T06:49:52.413Z,62.70
2019-03-30T06:53:56.022Z,57.43
2019-03-30T06:57:59.726Z,52.29
2019-03-30T07:02:03.455Z,52.02
2019-03-30T07:06:08.176Z,50.54
2019-03-30T07:10:11.910Z,48.74
2019-03-30T07:14:18.703Z,50.43
2019-03-30T07:18:22.414Z,51.22
2019-03-30T07:22:29.106Z,49.88
2019-03-30T07:26:32.962Z,51.81
2019-03-30T07:30:36.639Z,51.16
2019-03-30T07:34:41.798Z,51.47
2019-03-30T07:38:46.041Z,53.09
2019-03-30T07:42:49.623Z,52.47
2019-03-30T07:46:53.243Z,47.02
2019-03-30T07:50:56.854Z,45.17
2019-03-30T07:55:00.442Z,43.61
2019-03-30T07:59:04.204Z,45.78
2019-03-30T08:03:07.907Z,45.19
2019-03-30T08:07:11.620Z,43.33
2019-03-30T08:11:15.235Z,43.42
2019-03-30T08:15:18.946Z,39.77
2019-03-30T08:19:22.673Z,39.77
2019-03-30T08:23:39.509Z,39.01
2019-03-30T08:27:31.625Z,37.91
2019-03-30T08:31:35.247Z,37.36
2019-03-30T08:35:38.856Z,33.19
2019-03-30T08:39:42.582Z,30.82
2019-03-30T08:43:46.190Z,28.31
2019-03-30T08:47:49.803Z,28.40
2019-03-30T08:51:53.417Z,28.56
2019-03-30T08:55:57.030Z,26.46
2019-03-30T09:00:00.767Z,25.90
2019-03-30T09:04:04.467Z,26.46
2019-03-30T09:08:08.077Z,25.99
2019-03-30T09:12:11.696Z,24.64
2019-03-30T09:16:15.411Z,23.30
2019-03-30T09:20:19.123Z,24.12
2019-03-30T09:24:22.737Z,23.61
2019-03-30T09:28:26.458Z,23.89
2019-03-30T09:32:30.070Z,23.89
2019-03-30T09:36:33.937Z,25.53
2019-03-30T09:40:37.609Z,25.08
2019-03-30T09:44:41.227Z,24.12
2019-03-30T09:48:44.835Z,23.50
2019-03-30T09:52:48.449Z,23.84
2019-03-30T09:56:52.061Z,22.21
2019-03-30T10:00:55.780Z,22.59
2019-03-30T10:04:59.392Z,22.69
2019-03-30T10:09:03.619Z,23.94
2019-03-30T10:13:07.236Z,25.78
2019-03-30T10:17:10.847Z,24.91
2019-03-30T10:21:14.438Z,25.52
2019-03-30T10:25:18.025Z,27.00
2019-03-30T10:29:21.906Z,25.78
2019-03-30T10:33:25.509Z,25.64
2019-03-30T10:37:29.122Z,26.59
2019-03-30T10:41:32.749Z,27.26
2019-03-30T10:45:36.453Z,26.36
2019-03-30T10:49:40.033Z,26.79
2019-03-30T10:53:43.684Z,26.93
2019-03-30T10:57:47.300Z,26.73
2019-03-30T11:01:50.920Z,29.13
2019-03-30T11:05:54.524Z,28.16
2019-03-30T11:09:58.141Z,26.47
2019-03-30T11:14:01.754Z,26.50
2019-03-30T11:18:05.673Z,30.01
2019-03-30T11:22:09.287Z,32.43
2019-03-30T11:26:13.084Z,32.81
2019-03-30T11:30:16.846Z,33.42
2019-03-30T11:34:20.442Z,34.10
2019-03-30T11:38:23.985Z,35.23
2019-03-30T11:42:27.565Z,35.24
2019-03-30T11:46:31.180Z,36.38
2019-03-30T11:50:34.862Z,35.58
2019-03-30T11:54:38.509Z,32.97
2019-03-30T11:58:42.127Z,37.55
2019-03-30T12:02:45.738Z,34.00
2019-03-30T12:06:51.858Z,33.90
2019-03-30T12:10:54.814Z,38.32
2019-03-30T12:14:58.373Z,36.64
2019-03-30T12:19:10.950Z,35.74
2019-03-30T12:23:14.503Z,36.98
2019-03-30T12:27:18.072Z,37.63
2019-03-30T12:31:21.650Z,36.55
2019-03-30T12:35:25.405Z,35.38
2019-03-30T12:39:29.020Z,35.25
2019-03-30T12:43:32.630Z,34.70
2019-03-30T12:47:36.355Z,34.86
2019-03-30T12:51:39.916Z,35.24
2019-03-30T12:55:49.611Z,35.07
2019-03-30T12:59:49.032Z,34.86
2019-03-30T13:03:52.646Z,36.67
2019-03-30T13:07:56.264Z,35.47
2019-03-30T13:11:59.948Z,36.56
2019-03-30T13:16:03.693Z,36.17
2019-03-30T13:20:07.526Z,36.85
2019-03-30T13:24:11.127Z,37.17
2019-03-30T13:28:14.748Z,36.16
2019-03-30T13:32:18.355Z,36.62
2019-03-30T13:36:23.609Z,34.79
2019-03-30T13:40:27.325Z,34.96
2019-03-30T13:44:30.938Z,35.81
2019-03-30T13:48:34.553Z,34.80
2019-03-30T13:52:38.167Z,36.63
2019-03-30T13:56:41.983Z,36.74
2019-03-30T14:00:45.701Z,36.41
2019-03-30T14:04:52.258Z,36.62
2019-03-30T14:08:54.874Z,36.96
2019-03-30T14:12:58.489Z,36.04
2019-03-30T14:17:02.104Z,36.18
2019-03-30T14:21:05.927Z,36.75
2019-03-30T14:25:09.639Z,37.25
2019-03-30T14:29:13.263Z,36.24
2019-03-30T14:33:16.969Z,34.64
2019-03-30T14:37:20.585Z,35.54
2019-03-30T14:41:24.199Z,38.01
2019-03-30T14:45:27.810Z,39.65
2019-03-30T14:49:31.528Z,38.34
2019-03-30T14:53:35.078Z,37.73
2019-03-30T14:57:38.757Z,35.13
2019-03-30T15:01:42.474Z,35.71
2019-03-30T15:05:46.293Z,35.28
2019-03-30T15:09:49.909Z,34.86
2019-03-30T15:13:53.521Z,36.55
2019-03-30T15:17:57.151Z,36.65
2019-03-30T15:22:00.748Z,37.89
2019-03-30T15:26:04.479Z,38.64
2019-03-30T15:30:09.261Z,38.59
2019-03-30T15:34:12.921Z,39.83
2019-03-30T15:38:16.536Z,39.66
2019-03-30T15:42:20.112Z,38.30
2019-03-30T15:46:23.767Z,37.52
2019-03-30T15:50:27.490Z,38.28
2019-03-30T15:54:31.071Z,37.39
2019-03-30T15:58:34.711Z,37.59
2019-03-30T16:02:38.532Z,37.91
2019-03-30T16:06:42.140Z,38.59
2019-03-30T16:10:45.686Z,38.92
2019-03-30T16:14:49.267Z,39.07
2019-03-30T16:18:52.984Z,39.23
2019-03-30T16:22:56.702Z,39.25
2019-03-30T16:27:00.319Z,39.55
2019-03-30T16:31:04.036Z,40.76
2019-03-30T16:35:07.851Z,41.78
2019-03-30T16:39:11.465Z,42.80
2019-03-30T16:43:15.028Z,42.81
2019-03-30T16:47:18.694Z,42.84
2019-03-30T16:51:22.308Z,44.09
2019-03-30T16:55:25.920Z,44.10
2019-03-30T16:59:29.489Z,44.15
2019-03-30T17:03:33.149Z,43.02
2019-03-30T17:07:36.863Z,44.82
2019-03-30T17:11:40.460Z,44.94
2019-03-30T17:15:44.105Z,46.53
2019-03-30T17:19:47.708Z,46.33
2019-03-30T17:23:51.280Z,45.49
2019-03-30T17:27:58.647Z,46.43
2019-03-30T17:32:00.185Z,48.01
2019-03-30T17:36:03.909Z,48.00
2019-03-30T17:40:10.901Z,48.29
2019-03-30T17:44:14.493Z,49.31
2019-03-30T17:48:18.125Z,51.59
2019-03-30T17:52:21.685Z,52.76
2019-03-30T17:56:25.250Z,53.81
2019-03-30T18:00:28.864Z,54.80
2019-03-30T18:04:32.477Z,56.02
2019-03-30T18:08:36.138Z,58.18
2019-03-30T18:12:39.714Z,59.55
2019-03-30T18:16:43.267Z,60.15
2019-03-30T18:20:46.830Z,60.24
2019-03-30T18:24:50.446Z,61.19
2019-03-30T18:28:54.062Z,61.17
2019-03-30T18:32:57.881Z,61.86
2019-03-30T18:37:01.700Z,62.48
2019-03-30T18:41:05.420Z,62.94
2019-03-30T18:45:11.076Z,62.07
2019-03-30T18:49:14.718Z,63.34
2019-03-30T18:53:19.170Z,63.44
2019-03-30T18:57:22.845Z,63.50
2019-03-30T19:01:26.471Z,63.50
2019-03-30T19:05:30.170Z,63.69
2019-03-30T19:09:33.887Z,63.70
2019-03-30T19:13:37.509Z,63.42
2019-03-30T19:17:41.132Z,63.53
2019-03-30T19:21:44.935Z,63.44
2019-03-30T19:25:48.630Z,65.23
2019-03-30T19:29:52.268Z,65.55
2019-03-30T19:33:55.878Z,65.88
2019-03-30T19:37:59.423Z,65.37
2019-03-30T19:42:04.523Z,62.11
2019-03-30T19:46:08.259Z,56.37
2019-03-30T19:50:12.169Z,57.10
2019-03-30T19:54:15.798Z,56.08
2019-03-30T19:58:19.373Z,56.80
2019-03-30T20:02:23.025Z,56.95
2019-03-30T20:06:26.634Z,57.11
2019-03-30T20:10:30.350Z,58.08
2019-03-30T20:14:34.035Z,58.47
2019-03-30T20:18:37.680Z,58.59
2019-03-30T20:22:41.292Z,58.32
2019-03-30T20:26:44.871Z,58.57
2019-03-30T20:30:48.519Z,58.44
2019-03-30T20:34:52.144Z,57.36
2019-03-30T20:38:55.752Z,54.72
2019-03-30T20:42:59.363Z,54.47
2019-03-30T20:47:02.976Z,55.11
2019-03-30T20:51:06.898Z,55.48
2019-03-30T20:55:10.858Z,56.41
2019-03-30T20:59:14.459Z,56.45
2019-03-30T21:03:18.457Z,57.73
2019-03-30T21:07:22.016Z,57.91
2019-03-30T21:11:25.728Z,58.38
2019-03-30T21:15:29.300Z,59.02
2019-03-30T21:19:32.916Z,58.51
2019-03-30T21:23:36.492Z,59.55
2019-03-30T21:27:40.998Z,59.55
2019-03-30T21:31:44.581Z,60.36
2019-03-30T21:35:48.185Z,59.30
2019-03-30T21:39:51.805Z,58.91
2019-03-30T21:43:55.413Z,60.11
2019-03-30T21:47:59.043Z,60.11
2019-03-30T21:52:02.745Z,59.79
2019-03-30T21:56:06.359Z,60.66
2019-03-30T22:00:11.572Z,61.61
2019-03-30T22:04:15.538Z,62.35
2019-03-30T22:08:19.350Z,62.33
2019-03-30T22:12:22.964Z,62.05
2019-03-30T22:16:26.577Z,62.67
2019-03-30T22:20:30.298Z,62.62
2019-03-30T22:24:33.908Z,62.68
2019-03-30T22:28:37.522Z,63.18
2019-03-30T22:32:41.093Z,63.38
2019-03-30T22:36:44.751Z,63.68
2019-03-30T22:40:48.364Z,64.45
2019-03-30T22:44:51.980Z,64.35
2019-03-30T22:48:55.542Z,63.76
2019-03-30T22:52:59.217Z,63.99
2019-03-30T22:57:02.828Z,63.31
2019-03-30T23:01:08.179Z,62.76
2019-03-30T23:05:12.001Z,63.36
2019-03-30T23:09:15.553Z,63.86
2019-03-30T23:13:19.128Z,63.89
2019-03-30T23:17:22.836Z,64.53
2019-03-30T23:21:26.553Z,64.66
2019-03-30T23:25:30.166Z,64.70
2019-03-30T23:29:33.778Z,64.88
2019-03-30T23:33:37.397Z,64.78
2019-03-30T23:37:40.983Z,64.76
2019-03-30T23:41:44.620Z,65.44
2019-03-30T23:45:48.238Z,65.54
2019-03-30T23:49:51.952Z,65.89
2019-03-30T23:53:55.567Z,66.35
2019-03-30T23:57:59.180Z,66.12
